メインページ
METAR-TAF:

METAR-TAF

空港 :

シアトル / タコマ, ワシントン, アメリカ合衆国

シアトル・タコマ国際空港

緯度: 47-26-41N, 経度: 122-18-49W, 海抜: 130m

現時点の気象観測

当レポートは1時間17分前の20:53(UTC)に作成
の風 10kt
気温 2°C
湿度 37%
気圧 1023 hPa
視程: 16.1km
高度4500ftの雲はほとんどない
高度25000ftの雲はほとんどない

METAR: KSEA 192053Z 36010KT 10SM FEW045 FEW250 02/M11 A3021 RMK AO2 SLP241 T00221111 50003

時間: 14:10 (22:10 UTC)

予報

当レポートは4時間36分前の17:34(UTC)に作成
予報は19日の 18時(UTC)から 20日の 24時(UTC)まで有効
の風 13kt
視程: 10km
高度6000ftの雲はほとんどない
19日の 2100時(UTC)から
北/北西の風 11kt
視程: 10km
高度5000ftの雲はほとんどない
高度25000ftの雲は散在している
20日の 0300時(UTC)から
北/北東の風 6kt
視程: 10km
高度25000ftの雲は散在している
20日の 0600時(UTC)から
東/南東の風 5kt
視程: 10km
高度25000ftの雲は散在している

TAF: KSEA 191734Z 1918/2024 35013KT P6SM FEW060 FM192100 34011KT P6SM FEW050 SCT250 FM200300 03006KT P6SM SCT250 FM200600 12005KT P6SM SCT250

4,000以上の空港の気象観測と天気予報(METAR報とTAF報)

利用可能な観測所は地図上に黄色い丸と赤い丸で示す。

丸の上にカーソルを重ねると観測所名を参照できる。

次にクリックすると気象観測と天気予報を参照できる。

マップの切り替え:黒色「×」印の緑ボタンをクリックして拡大、「-」印の緑ボタンをクリックして縮小、緑色の三角印をクリックして隣りの地図に切り替え


METAR-TAF: